Eureka, Canada
Current Conditions -  °F | °C
As of 4:00 AM on Saturday 29 Nov 2014 (Local Time) from CWEU Reporting Station
Clear Clear  
Wind Chill: -46°   Ceiling: Unl
Heat Index: -27°   Visibility: 15mi
Dew Point: -35°   Wind: 7mph
Humidity: 69%   Direction: 110°ESE
Pressure: 29.68"   Gusts: NA
Location:  79.98°N, 85.83°W
Report Text: CWEU 291000Z 11006KT 15SM SKC M33/M37 A2968 RMK SLP055
Loading
Personal Weather Stations






























Interactive Weather Map New forecast layout! Learn more

10-Day Weather Forecast

Advertisements
Track Severe Weather on mobile